sensor_id;sensor_type;location;lat;lon;timestamp;P1;durP1;ratioP1;P2;durP2;ratioP2
56297;SDS011;42208;6.376;-10.782;2023-02-28T00:01:30;139.77;;;40.65;;
56297;SDS011;42208;6.376;-10.782;2023-02-28T00:03:59;272.38;;;94.43;;
56297;SDS011;42208;6.376;-10.782;2023-02-28T00:06:27;162.13;;;52.30;;
56297;SDS011;42208;6.376;-10.782;2023-02-28T00:08:56;141.02;;;35.38;;
56297;SDS011;42208;6.376;-10.782;2023-02-28T00:11:25;128.93;;;34.03;;
56297;SDS011;42208;6.376;-10.782;2023-02-28T00:13:53;113.63;;;25.15;;
56297;SDS011;42208;6.376;-10.782;2023-02-28T00:16:22;273.23;;;94.05;;
56297;SDS011;42208;6.376;-10.782;2023-02-28T00:18:50;273.20;;;91.75;;
56297;SDS011;42208;6.376;-10.782;2023-02-28T00:21:19;165.57;;;50.15;;
56297;SDS011;42208;6.376;-10.782;2023-02-28T00:23:47;113.05;;;31.83;;
56297;SDS011;42208;6.376;-10.782;2023-02-28T00:26:16;176.95;;;54.20;;
56297;SDS011;42208;6.376;-10.782;2023-02-28T00:31:16;158.93;;;45.38;;
56297;SDS011;42208;6.376;-10.782;2023-02-28T00:33:44;122.53;;;36.97;;
56297;SDS011;42208;6.376;-10.782;2023-02-28T00:36:13;98.72;;;22.85;;
56297;SDS011;42208;6.376;-10.782;2023-02-28T00:38:42;77.43;;;19.15;;
56297;SDS011;42208;6.376;-10.782;2023-02-28T00:41:10;95.68;;;18.10;;
56297;SDS011;42208;6.376;-10.782;2023-02-28T00:43:39;83.53;;;17.73;;
56297;SDS011;42208;6.376;-10.782;2023-02-28T00:46:10;82.28;;;17.75;;
56297;SDS011;42208;6.376;-10.782;2023-02-28T00:48:38;80.32;;;16.60;;
56297;SDS011;42208;6.376;-10.782;2023-02-28T00:51:07;83.95;;;15.60;;
56297;SDS011;42208;6.376;-10.782;2023-02-28T00:53:35;84.78;;;16.88;;
56297;SDS011;42208;6.376;-10.782;2023-02-28T00:56:04;81.53;;;17.55;;
56297;SDS011;42208;6.376;-10.782;2023-02-28T00:58:32;75.65;;;17.25;;
56297;SDS011;42208;6.376;-10.782;2023-02-28T01:01:01;80.80;;;17.08;;
56297;SDS011;42208;6.376;-10.782;2023-02-28T01:03:30;83.90;;;19.33;;
56297;SDS011;42208;6.376;-10.782;2023-02-28T01:05:58;77.13;;;17.95;;
56297;SDS011;42208;6.376;-10.782;2023-02-28T01:08:26;80.18;;;18.77;;
56297;SDS011;42208;6.376;-10.782;2023-02-28T01:10:55;89.93;;;21.23;;
56297;SDS011;42208;6.376;-10.782;2023-02-28T01:13:23;92.28;;;20.42;;
56297;SDS011;42208;6.376;-10.782;2023-02-28T01:15:53;89.78;;;18.70;;
56297;SDS011;42208;6.376;-10.782;2023-02-28T01:18:23;86.90;;;20.52;;
56297;SDS011;42208;6.376;-10.782;2023-02-28T01:20:52;82.47;;;20.23;;
56297;SDS011;42208;6.376;-10.782;2023-02-28T01:23:21;97.75;;;19.70;;
56297;SDS011;42208;6.376;-10.782;2023-02-28T01:25:51;91.50;;;19.17;;
56297;SDS011;42208;6.376;-10.782;2023-02-28T01:28:19;94.65;;;21.45;;
56297;SDS011;42208;6.376;-10.782;2023-02-28T01:30:49;89.63;;;19.88;;
56297;SDS011;42208;6.376;-10.782;2023-02-28T01:33:19;106.90;;;19.48;;
56297;SDS011;42208;6.376;-10.782;2023-02-28T01:35:48;92.78;;;20.45;;
56297;SDS011;42208;6.376;-10.782;2023-02-28T01:38:16;79.03;;;20.75;;
56297;SDS011;42208;6.376;-10.782;2023-02-28T01:40:51;99.00;;;19.38;;
56297;SDS011;42208;6.376;-10.782;2023-02-28T01:43:30;78.60;;;18.08;;
56297;SDS011;42208;6.376;-10.782;2023-02-28T01:46:18;73.63;;;17.08;;
56297;SDS011;42208;6.376;-10.782;2023-02-28T01:48:48;75.95;;;18.23;;
56297;SDS011;42208;6.376;-10.782;2023-02-28T01:51:18;92.40;;;24.75;;
56297;SDS011;42208;6.376;-10.782;2023-02-28T01:54:04;97.50;;;28.17;;
56297;SDS011;42208;6.376;-10.782;2023-02-28T01:56:36;99.40;;;30.75;;
56297;SDS011;42208;6.376;-10.782;2023-02-28T01:59:05;127.00;;;33.40;;
56297;SDS011;42208;6.376;-10.782;2023-02-28T02:01:33;118.05;;;33.72;;
56297;SDS011;42208;6.376;-10.782;2023-02-28T02:04:02;114.45;;;34.83;;
56297;SDS011;42208;6.376;-10.782;2023-02-28T02:06:40;120.63;;;35.95;;
56297;SDS011;42208;6.376;-10.782;2023-02-28T02:09:11;121.78;;;38.70;;
56297;SDS011;42208;6.376;-10.782;2023-02-28T02:11:40;123.65;;;37.97;;
56297;SDS011;42208;6.376;-10.782;2023-02-28T02:14:21;125.25;;;41.05;;
56297;SDS011;42208;6.376;-10.782;2023-02-28T02:17:05;142.25;;;44.83;;
56297;SDS011;42208;6.376;-10.782;2023-02-28T02:25:53;166.60;;;51.10;;
56297;SDS011;42208;6.376;-10.782;2023-02-28T02:31:11;159.68;;;50.25;;
56297;SDS011;42208;6.376;-10.782;2023-02-28T02:36:58;128.30;;;41.22;;
56297;SDS011;42208;6.376;-10.782;2023-02-28T02:39:53;124.03;;;39.70;;
56297;SDS011;42208;6.376;-10.782;2023-02-28T02:42:36;118.35;;;38.97;;
56297;SDS011;42208;6.376;-10.782;2023-02-28T02:45:14;114.57;;;37.20;;
56297;SDS011;42208;6.376;-10.782;2023-02-28T02:47:53;105.85;;;34.80;;
56297;SDS011;42208;6.376;-10.782;2023-02-28T02:50:29;119.47;;;37.10;;
56297;SDS011;42208;6.376;-10.782;2023-02-28T02:53:06;120.60;;;38.30;;
56297;SDS011;42208;6.376;-10.782;2023-02-28T02:55:38;135.02;;;39.00;;
56297;SDS011;42208;6.376;-10.782;2023-02-28T02:58:13;135.30;;;39.20;;
56297;SDS011;42208;6.376;-10.782;2023-02-28T03:00:45;128.88;;;36.13;;
56297;SDS011;42208;6.376;-10.782;2023-02-28T03:03:19;103.97;;;32.75;;
56297;SDS011;42208;6.376;-10.782;2023-02-28T03:05:49;101.72;;;29.63;;
56297;SDS011;42208;6.376;-10.782;2023-02-28T03:08:18;102.32;;;31.05;;
56297;SDS011;42208;6.376;-10.782;2023-02-28T03:10:50;72.85;;;25.85;;
56297;SDS011;42208;6.376;-10.782;2023-02-28T03:16:23;102.28;;;29.45;;
56297;SDS011;42208;6.376;-10.782;2023-02-28T03:19:32;91.30;;;29.52;;
56297;SDS011;42208;6.376;-10.782;2023-02-28T03:27:59;138.02;;;33.75;;
56297;SDS011;42208;6.376;-10.782;2023-02-28T03:33:51;92.43;;;28.38;;
56297;SDS011;42208;6.376;-10.782;2023-02-28T03:36:37;91.53;;;29.08;;
56297;SDS011;42208;6.376;-10.782;2023-02-28T03:39:09;105.43;;;29.15;;
56297;SDS011;42208;6.376;-10.782;2023-02-28T03:41:46;114.68;;;30.08;;
56297;SDS011;42208;6.376;-10.782;2023-02-28T03:44:27;97.38;;;27.85;;
56297;SDS011;42208;6.376;-10.782;2023-02-28T03:47:07;103.25;;;29.48;;
56297;SDS011;42208;6.376;-10.782;2023-02-28T03:49:40;97.18;;;31.35;;
56297;SDS011;42208;6.376;-10.782;2023-02-28T03:52:17;114.45;;;36.72;;
56297;SDS011;42208;6.376;-10.782;2023-02-28T03:54:50;111.70;;;32.25;;
56297;SDS011;42208;6.376;-10.782;2023-02-28T04:00:13;89.78;;;27.88;;
56297;SDS011;42208;6.376;-10.782;2023-02-28T04:02:46;80.75;;;26.67;;
56297;SDS011;42208;6.376;-10.782;2023-02-28T04:05:14;68.75;;;24.58;;
56297;SDS011;42208;6.376;-10.782;2023-02-28T04:07:43;128.82;;;27.27;;
56297;SDS011;42208;6.376;-10.782;2023-02-28T04:10:11;59.20;;;21.42;;
56297;SDS011;42208;6.376;-10.782;2023-02-28T04:12:40;66.72;;;22.85;;
56297;SDS011;42208;6.376;-10.782;2023-02-28T04:15:08;55.35;;;23.00;;
56297;SDS011;42208;6.376;-10.782;2023-02-28T04:17:37;71.13;;;24.48;;
56297;SDS011;42208;6.376;-10.782;2023-02-28T04:20:05;66.95;;;22.70;;
56297;SDS011;42208;6.376;-10.782;2023-02-28T04:22:34;56.42;;;23.88;;
56297;SDS011;42208;6.376;-10.782;2023-02-28T04:25:04;67.07;;;24.25;;
56297;SDS011;42208;6.376;-10.782;2023-02-28T04:27:33;60.15;;;23.80;;
56297;SDS011;42208;6.376;-10.782;2023-02-28T04:30:01;60.72;;;23.95;;
56297;SDS011;42208;6.376;-10.782;2023-02-28T04:32:30;61.80;;;23.35;;
56297;SDS011;42208;6.376;-10.782;2023-02-28T04:34:58;55.95;;;21.98;;
56297;SDS011;42208;6.376;-10.782;2023-02-28T04:37:27;52.55;;;21.88;;
56297;SDS011;42208;6.376;-10.782;2023-02-28T04:39:55;58.53;;;24.38;;
56297;SDS011;42208;6.376;-10.782;2023-02-28T04:42:23;72.97;;;30.48;;
56297;SDS011;42208;6.376;-10.782;2023-02-28T04:44:51;90.78;;;31.70;;
56297;SDS011;42208;6.376;-10.782;2023-02-28T04:47:20;70.03;;;27.83;;
56297;SDS011;42208;6.376;-10.782;2023-02-28T04:49:48;64.45;;;25.33;;
56297;SDS011;42208;6.376;-10.782;2023-02-28T04:52:16;62.80;;;24.45;;
56297;SDS011;42208;6.376;-10.782;2023-02-28T04:54:44;56.05;;;24.50;;
56297;SDS011;42208;6.376;-10.782;2023-02-28T04:57:13;51.08;;;21.65;;
56297;SDS011;42208;6.376;-10.782;2023-02-28T04:59:41;69.97;;;25.52;;
56297;SDS011;42208;6.376;-10.782;2023-02-28T05:02:09;65.85;;;25.50;;
56297;SDS011;42208;6.376;-10.782;2023-02-28T05:04:37;58.25;;;25.88;;
56297;SDS011;42208;6.376;-10.782;2023-02-28T05:07:06;67.22;;;28.70;;
56297;SDS011;42208;6.376;-10.782;2023-02-28T05:09:34;81.65;;;38.25;;
56297;SDS011;42208;6.376;-10.782;2023-02-28T05:12:02;98.25;;;44.25;;
56297;SDS011;42208;6.376;-10.782;2023-02-28T05:14:31;91.45;;;42.67;;
56297;SDS011;42208;6.376;-10.782;2023-02-28T05:16:59;89.25;;;45.15;;
56297;SDS011;42208;6.376;-10.782;2023-02-28T05:19:27;85.28;;;41.33;;
56297;SDS011;42208;6.376;-10.782;2023-02-28T05:21:56;93.95;;;44.80;;
56297;SDS011;42208;6.376;-10.782;2023-02-28T05:24:24;77.30;;;39.13;;
56297;SDS011;42208;6.376;-10.782;2023-02-28T05:26:53;87.07;;;39.70;;
56297;SDS011;42208;6.376;-10.782;2023-02-28T05:29:21;73.68;;;34.58;;
56297;SDS011;42208;6.376;-10.782;2023-02-28T05:31:50;72.55;;;30.35;;
56297;SDS011;42208;6.376;-10.782;2023-02-28T05:34:18;63.38;;;25.92;;
56297;SDS011;42208;6.376;-10.782;2023-02-28T05:36:47;58.67;;;25.77;;
56297;SDS011;42208;6.376;-10.782;2023-02-28T05:39:15;62.28;;;23.75;;
56297;SDS011;42208;6.376;-10.782;2023-02-28T05:41:43;49.78;;;20.65;;
56297;SDS011;42208;6.376;-10.782;2023-02-28T05:44:12;53.90;;;20.67;;
56297;SDS011;42208;6.376;-10.782;2023-02-28T05:46:40;54.53;;;20.75;;
56297;SDS011;42208;6.376;-10.782;2023-02-28T05:49:08;51.50;;;19.92;;
56297;SDS011;42208;6.376;-10.782;2023-02-28T05:51:36;53.88;;;19.73;;
56297;SDS011;42208;6.376;-10.782;2023-02-28T05:54:05;49.80;;;19.13;;
56297;SDS011;42208;6.376;-10.782;2023-02-28T05:56:34;61.50;;;21.95;;
56297;SDS011;42208;6.376;-10.782;2023-02-28T05:59:02;55.38;;;20.00;;
56297;SDS011;42208;6.376;-10.782;2023-02-28T06:01:32;59.13;;;19.92;;
56297;SDS011;42208;6.376;-10.782;2023-02-28T06:04:03;64.30;;;22.40;;
56297;SDS011;42208;6.376;-10.782;2023-02-28T06:06:33;60.88;;;20.40;;
56297;SDS011;42208;6.376;-10.782;2023-02-28T06:09:05;59.45;;;20.33;;
56297;SDS011;42208;6.376;-10.782;2023-02-28T06:11:34;52.15;;;20.58;;
56297;SDS011;42208;6.376;-10.782;2023-02-28T06:14:02;52.35;;;19.30;;
56297;SDS011;42208;6.376;-10.782;2023-02-28T06:16:32;62.10;;;24.13;;
56297;SDS011;42208;6.376;-10.782;2023-02-28T06:19:02;65.70;;;23.25;;
56297;SDS011;42208;6.376;-10.782;2023-02-28T06:21:31;71.28;;;23.45;;
56297;SDS011;42208;6.376;-10.782;2023-02-28T06:24:00;57.10;;;21.08;;
56297;SDS011;42208;6.376;-10.782;2023-02-28T06:26:29;75.05;;;20.70;;
56297;SDS011;42208;6.376;-10.782;2023-02-28T06:28:57;79.30;;;23.73;;
56297;SDS011;42208;6.376;-10.782;2023-02-28T06:31:26;70.60;;;23.25;;
56297;SDS011;42208;6.376;-10.782;2023-02-28T06:33:55;71.05;;;26.70;;
56297;SDS011;42208;6.376;-10.782;2023-02-28T06:36:23;76.75;;;30.88;;
56297;SDS011;42208;6.376;-10.782;2023-02-28T06:38:52;89.72;;;30.92;;
56297;SDS011;42208;6.376;-10.782;2023-02-28T06:41:24;76.90;;;26.45;;
56297;SDS011;42208;6.376;-10.782;2023-02-28T06:43:54;75.80;;;22.55;;
56297;SDS011;42208;6.376;-10.782;2023-02-28T06:46:23;57.55;;;18.83;;
56297;SDS011;42208;6.376;-10.782;2023-02-28T06:48:51;58.50;;;18.55;;
56297;SDS011;42208;6.376;-10.782;2023-02-28T06:51:20;70.18;;;20.05;;
56297;SDS011;42208;6.376;-10.782;2023-02-28T06:53:49;62.95;;;17.98;;
56297;SDS011;42208;6.376;-10.782;2023-02-28T06:56:17;59.00;;;18.75;;
56297;SDS011;42208;6.376;-10.782;2023-02-28T06:58:47;66.13;;;20.40;;
56297;SDS011;42208;6.376;-10.782;2023-02-28T07:01:16;80.30;;;22.08;;
56297;SDS011;42208;6.376;-10.782;2023-02-28T07:03:46;80.63;;;20.13;;
56297;SDS011;42208;6.376;-10.782;2023-02-28T07:06:14;66.32;;;21.27;;
56297;SDS011;42208;6.376;-10.782;2023-02-28T07:08:42;84.35;;;23.98;;
56297;SDS011;42208;6.376;-10.782;2023-02-28T07:11:11;80.97;;;24.38;;
56297;SDS011;42208;6.376;-10.782;2023-02-28T07:13:39;84.38;;;24.88;;
56297;SDS011;42208;6.376;-10.782;2023-02-28T07:16:09;82.32;;;24.35;;
56297;SDS011;42208;6.376;-10.782;2023-02-28T07:18:38;95.32;;;23.52;;
56297;SDS011;42208;6.376;-10.782;2023-02-28T07:21:08;84.88;;;21.65;;
56297;SDS011;42208;6.376;-10.782;2023-02-28T07:23:37;74.82;;;20.25;;
56297;SDS011;42208;6.376;-10.782;2023-02-28T07:26:06;83.38;;;21.08;;
56297;SDS011;42208;6.376;-10.782;2023-02-28T07:28:38;82.60;;;19.55;;
56297;SDS011;42208;6.376;-10.782;2023-02-28T07:31:06;67.65;;;20.58;;
56297;SDS011;42208;6.376;-10.782;2023-02-28T07:33:35;97.70;;;24.08;;
56297;SDS011;42208;6.376;-10.782;2023-02-28T07:36:05;81.20;;;21.00;;
56297;SDS011;42208;6.376;-10.782;2023-02-28T07:38:36;81.90;;;22.73;;
56297;SDS011;42208;6.376;-10.782;2023-02-28T07:41:04;79.55;;;22.92;;
56297;SDS011;42208;6.376;-10.782;2023-02-28T07:43:32;73.05;;;23.73;;
56297;SDS011;42208;6.376;-10.782;2023-02-28T07:46:05;75.15;;;22.33;;
56297;SDS011;42208;6.376;-10.782;2023-02-28T07:48:35;69.05;;;19.45;;
56297;SDS011;42208;6.376;-10.782;2023-02-28T07:51:04;80.10;;;20.85;;
56297;SDS011;42208;6.376;-10.782;2023-02-28T07:53:32;74.60;;;18.52;;
56297;SDS011;42208;6.376;-10.782;2023-02-28T07:56:01;77.05;;;18.38;;
56297;SDS011;42208;6.376;-10.782;2023-02-28T07:58:30;68.25;;;14.82;;
56297;SDS011;42208;6.376;-10.782;2023-02-28T08:01:08;74.43;;;16.38;;
56297;SDS011;42208;6.376;-10.782;2023-02-28T08:03:38;65.60;;;15.43;;
56297;SDS011;42208;6.376;-10.782;2023-02-28T08:06:07;69.47;;;15.68;;
56297;SDS011;42208;6.376;-10.782;2023-02-28T08:08:42;71.95;;;15.65;;
56297;SDS011;42208;6.376;-10.782;2023-02-28T08:11:10;68.38;;;17.40;;
56297;SDS011;42208;6.376;-10.782;2023-02-28T08:13:38;72.97;;;16.42;;
56297;SDS011;42208;6.376;-10.782;2023-02-28T08:16:07;66.03;;;16.02;;
56297;SDS011;42208;6.376;-10.782;2023-02-28T08:18:35;90.22;;;18.92;;
56297;SDS011;42208;6.376;-10.782;2023-02-28T08:21:07;93.50;;;20.35;;
56297;SDS011;42208;6.376;-10.782;2023-02-28T08:23:36;75.97;;;17.65;;
56297;SDS011;42208;6.376;-10.782;2023-02-28T08:26:05;72.93;;;18.70;;
56297;SDS011;42208;6.376;-10.782;2023-02-28T08:28:33;87.63;;;17.35;;
56297;SDS011;42208;6.376;-10.782;2023-02-28T08:31:06;83.75;;;16.98;;
56297;SDS011;42208;6.376;-10.782;2023-02-28T08:33:36;62.20;;;16.17;;
56297;SDS011;42208;6.376;-10.782;2023-02-28T08:36:06;71.70;;;17.50;;
56297;SDS011;42208;6.376;-10.782;2023-02-28T08:38:35;74.75;;;16.38;;
56297;SDS011;42208;6.376;-10.782;2023-02-28T08:41:06;83.50;;;17.20;;
56297;SDS011;42208;6.376;-10.782;2023-02-28T08:43:36;64.13;;;15.45;;
56297;SDS011;42208;6.376;-10.782;2023-02-28T08:46:06;79.47;;;17.92;;
56297;SDS011;42208;6.376;-10.782;2023-02-28T08:48:38;87.20;;;20.05;;
56297;SDS011;42208;6.376;-10.782;2023-02-28T08:51:08;92.93;;;21.65;;
56297;SDS011;42208;6.376;-10.782;2023-02-28T08:53:39;78.03;;;19.30;;
56297;SDS011;42208;6.376;-10.782;2023-02-28T08:56:11;107.45;;;20.02;;
56297;SDS011;42208;6.376;-10.782;2023-02-28T08:58:42;76.43;;;20.42;;
56297;SDS011;42208;6.376;-10.782;2023-02-28T09:01:13;89.97;;;17.40;;
56297;SDS011;42208;6.376;-10.782;2023-02-28T09:03:47;99.97;;;19.17;;
56297;SDS011;42208;6.376;-10.782;2023-02-28T09:06:17;87.88;;;17.25;;
56297;SDS011;42208;6.376;-10.782;2023-02-28T09:08:47;91.03;;;17.67;;
56297;SDS011;42208;6.376;-10.782;2023-02-28T09:11:15;78.28;;;16.23;;
56297;SDS011;42208;6.376;-10.782;2023-02-28T09:13:44;85.05;;;16.67;;
56297;SDS011;42208;6.376;-10.782;2023-02-28T09:16:13;106.20;;;19.17;;
56297;SDS011;42208;6.376;-10.782;2023-02-28T09:18:43;74.68;;;17.25;;
56297;SDS011;42208;6.376;-10.782;2023-02-28T09:21:12;81.38;;;17.50;;
56297;SDS011;42208;6.376;-10.782;2023-02-28T09:23:43;94.85;;;17.08;;
56297;SDS011;42208;6.376;-10.782;2023-02-28T09:29:04;74.50;;;15.30;;
56297;SDS011;42208;6.376;-10.782;2023-02-28T09:31:33;84.18;;;17.40;;
56297;SDS011;42208;6.376;-10.782;2023-02-28T09:34:01;83.38;;;18.42;;
56297;SDS011;42208;6.376;-10.782;2023-02-28T09:36:31;84.28;;;18.85;;
56297;SDS011;42208;6.376;-10.782;2023-02-28T09:39:11;83.03;;;17.20;;
56297;SDS011;42208;6.376;-10.782;2023-02-28T09:41:45;72.15;;;15.90;;
56297;SDS011;42208;6.376;-10.782;2023-02-28T09:47:26;63.10;;;15.10;;
56297;SDS011;42208;6.376;-10.782;2023-02-28T09:49:55;69.55;;;14.32;;
56297;SDS011;42208;6.376;-10.782;2023-02-28T09:52:28;61.47;;;14.07;;
56297;SDS011;42208;6.376;-10.782;2023-02-28T09:57:37;62.42;;;11.48;;
56297;SDS011;42208;6.376;-10.782;2023-02-28T10:05:19;57.67;;;10.40;;
56297;SDS011;42208;6.376;-10.782;2023-02-28T10:08:05;50.25;;;10.55;;
56297;SDS011;42208;6.376;-10.782;2023-02-28T10:10:47;57.65;;;9.88;;
56297;SDS011;42208;6.376;-10.782;2023-02-28T10:13:26;74.03;;;13.57;;
56297;SDS011;42208;6.376;-10.782;2023-02-28T10:16:06;69.68;;;11.07;;
56297;SDS011;42208;6.376;-10.782;2023-02-28T10:21:18;67.75;;;10.75;;
56297;SDS011;42208;6.376;-10.782;2023-02-28T10:24:05;45.50;;;8.20;;
56297;SDS011;42208;6.376;-10.782;2023-02-28T10:26:58;47.60;;;9.10;;
56297;SDS011;42208;6.376;-10.782;2023-02-28T10:29:29;60.65;;;11.23;;
56297;SDS011;42208;6.376;-10.782;2023-02-28T10:32:00;65.35;;;10.27;;
56297;SDS011;42208;6.376;-10.782;2023-02-28T10:34:31;56.22;;;10.65;;
56297;SDS011;42208;6.376;-10.782;2023-02-28T10:36:59;59.05;;;7.53;;
56297;SDS011;42208;6.376;-10.782;2023-02-28T10:39:46;59.65;;;11.02;;
56297;SDS011;42208;6.376;-10.782;2023-02-28T10:42:33;53.50;;;9.63;;
56297;SDS011;42208;6.376;-10.782;2023-02-28T10:45:05;50.60;;;9.85;;
56297;SDS011;42208;6.376;-10.782;2023-02-28T10:47:42;58.45;;;10.05;;
56297;SDS011;42208;6.376;-10.782;2023-02-28T10:51:03;54.88;;;9.60;;
56297;SDS011;42208;6.376;-10.782;2023-02-28T10:56:23;55.10;;;8.98;;
56297;SDS011;42208;6.376;-10.782;2023-02-28T10:58:50;55.65;;;9.02;;
56297;SDS011;42208;6.376;-10.782;2023-02-28T11:01:42;50.05;;;9.60;;
56297;SDS011;42208;6.376;-10.782;2023-02-28T11:04:19;46.05;;;8.32;;
56297;SDS011;42208;6.376;-10.782;2023-02-28T11:06:57;74.40;;;9.70;;
56297;SDS011;42208;6.376;-10.782;2023-02-28T11:09:33;53.55;;;10.25;;
56297;SDS011;42208;6.376;-10.782;2023-02-28T11:12:03;46.72;;;8.77;;
56297;SDS011;42208;6.376;-10.782;2023-02-28T11:14:47;47.97;;;8.80;;
56297;SDS011;42208;6.376;-10.782;2023-02-28T11:17:24;61.77;;;8.67;;
56297;SDS011;42208;6.376;-10.782;2023-02-28T11:19:58;68.93;;;10.93;;
56297;SDS011;42208;6.376;-10.782;2023-02-28T11:22:38;54.65;;;9.40;;
56297;SDS011;42208;6.376;-10.782;2023-02-28T11:25:25;61.75;;;8.05;;
56297;SDS011;42208;6.376;-10.782;2023-02-28T11:28:00;49.38;;;8.80;;
56297;SDS011;42208;6.376;-10.782;2023-02-28T11:30:37;64.40;;;9.95;;
56297;SDS011;42208;6.376;-10.782;2023-02-28T11:33:25;46.13;;;8.77;;
56297;SDS011;42208;6.376;-10.782;2023-02-28T11:36:22;64.18;;;9.07;;
56297;SDS011;42208;6.376;-10.782;2023-02-28T11:38:56;55.47;;;8.73;;
56297;SDS011;42208;6.376;-10.782;2023-02-28T11:44:26;50.92;;;9.23;;
56297;SDS011;42208;6.376;-10.782;2023-02-28T11:55:17;52.65;;;8.40;;
56297;SDS011;42208;6.376;-10.782;2023-02-28T11:58:01;73.25;;;13.88;;
56297;SDS011;42208;6.376;-10.782;2023-02-28T12:00:50;61.58;;;10.15;;
56297;SDS011;42208;6.376;-10.782;2023-02-28T12:04:03;64.10;;;8.82;;
56297;SDS011;42208;6.376;-10.782;2023-02-28T12:06:31;57.20;;;9.77;;
56297;SDS011;42208;6.376;-10.782;2023-02-28T12:22:45;50.42;;;8.55;;
56297;SDS011;42208;6.376;-10.782;2023-02-28T12:28:08;66.82;;;10.25;;
56297;SDS011;42208;6.376;-10.782;2023-02-28T12:30:41;52.67;;;10.05;;
56297;SDS011;42208;6.376;-10.782;2023-02-28T12:33:19;67.05;;;10.80;;
56297;SDS011;42208;6.376;-10.782;2023-02-28T12:35:56;54.25;;;10.48;;
56297;SDS011;42208;6.376;-10.782;2023-02-28T12:41:22;74.10;;;10.90;;
56297;SDS011;42208;6.376;-10.782;2023-02-28T12:44:17;48.85;;;10.68;;
56297;SDS011;42208;6.376;-10.782;2023-02-28T12:47:04;54.40;;;9.90;;
56297;SDS011;42208;6.376;-10.782;2023-02-28T12:49:38;52.15;;;8.15;;
56297;SDS011;42208;6.376;-10.782;2023-02-28T12:52:13;47.22;;;8.05;;
56297;SDS011;42208;6.376;-10.782;2023-02-28T12:54:49;55.05;;;8.32;;
56297;SDS011;42208;6.376;-10.782;2023-02-28T12:57:40;58.42;;;8.32;;
56297;SDS011;42208;6.376;-10.782;2023-02-28T13:00:22;47.25;;;8.70;;
56297;SDS011;42208;6.376;-10.782;2023-02-28T13:08:23;44.35;;;8.02;;
56297;SDS011;42208;6.376;-10.782;2023-02-28T13:10:58;55.58;;;8.52;;
56297;SDS011;42208;6.376;-10.782;2023-02-28T13:13:31;48.10;;;8.75;;
56297;SDS011;42208;6.376;-10.782;2023-02-28T13:18:36;61.63;;;8.57;;
56297;SDS011;42208;6.376;-10.782;2023-02-28T13:21:08;56.13;;;11.35;;
56297;SDS011;42208;6.376;-10.782;2023-02-28T13:27:10;49.00;;;8.13;;
56297;SDS011;42208;6.376;-10.782;2023-02-28T13:29:38;64.18;;;9.65;;
56297;SDS011;42208;6.376;-10.782;2023-02-28T13:34:38;65.57;;;10.27;;
56297;SDS011;42208;6.376;-10.782;2023-02-28T13:39:50;51.33;;;9.70;;
56297;SDS011;42208;6.376;-10.782;2023-02-28T13:47:35;59.80;;;15.73;;
56297;SDS011;42208;6.376;-10.782;2023-02-28T13:50:23;64.15;;;19.20;;
56297;SDS011;42208;6.376;-10.782;2023-02-28T13:52:55;69.60;;;13.32;;
56297;SDS011;42208;6.376;-10.782;2023-02-28T14:09:45;41.15;;;7.22;;
56297;SDS011;42208;6.376;-10.782;2023-02-28T14:20:57;50.85;;;10.15;;
56297;SDS011;42208;6.376;-10.782;2023-02-28T14:26:46;68.68;;;9.20;;
56297;SDS011;42208;6.376;-10.782;2023-02-28T14:29:27;46.22;;;10.00;;
56297;SDS011;42208;6.376;-10.782;2023-02-28T14:32:32;69.43;;;10.10;;
56297;SDS011;42208;6.376;-10.782;2023-02-28T14:38:14;53.85;;;8.63;;
56297;SDS011;42208;6.376;-10.782;2023-02-28T14:40:51;67.35;;;15.15;;
56297;SDS011;42208;6.376;-10.782;2023-02-28T14:43:22;55.22;;;11.48;;
56297;SDS011;42208;6.376;-10.782;2023-02-28T14:45:56;45.10;;;9.73;;
56297;SDS011;42208;6.376;-10.782;2023-02-28T14:48:30;45.45;;;9.20;;
56297;SDS011;42208;6.376;-10.782;2023-02-28T14:50:59;86.28;;;25.30;;
56297;SDS011;42208;6.376;-10.782;2023-02-28T14:53:29;84.65;;;20.30;;
56297;SDS011;42208;6.376;-10.782;2023-02-28T14:56:03;106.53;;;33.88;;
56297;SDS011;42208;6.376;-10.782;2023-02-28T14:58:33;62.33;;;13.38;;
56297;SDS011;42208;6.376;-10.782;2023-02-28T15:01:02;55.55;;;8.65;;
56297;SDS011;42208;6.376;-10.782;2023-02-28T15:03:35;59.13;;;11.38;;
56297;SDS011;42208;6.376;-10.782;2023-02-28T15:06:06;76.43;;;25.15;;
56297;SDS011;42208;6.376;-10.782;2023-02-28T15:08:44;54.70;;;10.70;;
56297;SDS011;42208;6.376;-10.782;2023-02-28T15:13:47;88.43;;;22.83;;
56297;SDS011;42208;6.376;-10.782;2023-02-28T15:18:48;58.83;;;10.00;;
56297;SDS011;42208;6.376;-10.782;2023-02-28T15:21:25;47.78;;;10.93;;
56297;SDS011;42208;6.376;-10.782;2023-02-28T15:24:00;50.80;;;11.50;;
56297;SDS011;42208;6.376;-10.782;2023-02-28T15:26:34;58.42;;;10.95;;
56297;SDS011;42208;6.376;-10.782;2023-02-28T15:29:17;62.17;;;10.60;;
56297;SDS011;42208;6.376;-10.782;2023-02-28T15:31:55;54.30;;;11.60;;
56297;SDS011;42208;6.376;-10.782;2023-02-28T15:34:38;56.80;;;7.88;;
56297;SDS011;42208;6.376;-10.782;2023-02-28T15:40:13;45.47;;;8.48;;
56297;SDS011;42208;6.376;-10.782;2023-02-28T15:48:17;40.67;;;7.70;;
56297;SDS011;42208;6.376;-10.782;2023-02-28T15:50:51;57.10;;;13.13;;
56297;SDS011;42208;6.376;-10.782;2023-02-28T15:53:45;53.13;;;15.38;;
56297;SDS011;42208;6.376;-10.782;2023-02-28T15:58:55;57.58;;;7.78;;
56297;SDS011;42208;6.376;-10.782;2023-02-28T16:01:26;36.75;;;8.07;;
56297;SDS011;42208;6.376;-10.782;2023-02-28T16:03:59;51.63;;;11.55;;
56297;SDS011;42208;6.376;-10.782;2023-02-28T16:09:00;73.72;;;17.85;;
56297;SDS011;42208;6.376;-10.782;2023-02-28T16:11:30;66.22;;;15.70;;
56297;SDS011;42208;6.376;-10.782;2023-02-28T16:14:02;60.83;;;12.27;;
56297;SDS011;42208;6.376;-10.782;2023-02-28T16:16:31;48.88;;;9.38;;
56297;SDS011;42208;6.376;-10.782;2023-02-28T16:19:03;40.30;;;9.10;;
56297;SDS011;42208;6.376;-10.782;2023-02-28T16:21:32;46.95;;;9.55;;
56297;SDS011;42208;6.376;-10.782;2023-02-28T16:24:02;42.42;;;8.40;;
56297;SDS011;42208;6.376;-10.782;2023-02-28T16:26:30;50.72;;;11.15;;
56297;SDS011;42208;6.376;-10.782;2023-02-28T16:28:58;59.38;;;11.43;;
56297;SDS011;42208;6.376;-10.782;2023-02-28T16:31:28;45.53;;;8.20;;
56297;SDS011;42208;6.376;-10.782;2023-02-28T16:33:57;47.15;;;8.00;;
56297;SDS011;42208;6.376;-10.782;2023-02-28T16:36:25;54.78;;;8.50;;
56297;SDS011;42208;6.376;-10.782;2023-02-28T16:38:54;43.63;;;9.57;;
56297;SDS011;42208;6.376;-10.782;2023-02-28T16:41:24;39.20;;;9.73;;
56297;SDS011;42208;6.376;-10.782;2023-02-28T16:43:55;57.20;;;7.32;;
56297;SDS011;42208;6.376;-10.782;2023-02-28T16:46:35;47.08;;;8.23;;
56297;SDS011;42208;6.376;-10.782;2023-02-28T16:49:04;38.60;;;7.13;;
56297;SDS011;42208;6.376;-10.782;2023-02-28T16:51:36;48.63;;;6.68;;
56297;SDS011;42208;6.376;-10.782;2023-02-28T16:54:04;61.95;;;8.77;;
56297;SDS011;42208;6.376;-10.782;2023-02-28T16:56:32;44.85;;;7.45;;
56297;SDS011;42208;6.376;-10.782;2023-02-28T16:59:02;41.67;;;8.40;;
56297;SDS011;42208;6.376;-10.782;2023-02-28T17:01:30;51.03;;;9.77;;
56297;SDS011;42208;6.376;-10.782;2023-02-28T17:03:59;60.63;;;8.77;;
56297;SDS011;42208;6.376;-10.782;2023-02-28T17:06:28;28.23;;;6.22;;
56297;SDS011;42208;6.376;-10.782;2023-02-28T17:08:57;53.80;;;8.55;;